Manitowoc, Wisconsin
Current Conditions -  °F | °C
As of 8:56 AM on Friday 31 Oct 2014 (Local Time) from KMTW Reporting Station
Light Rain Light Rain  
Wind Chill: 22°   Ceiling: 3000
Heat Index: 35°   Visibility: 10mi
Dew Point: 27°   Wind: 29mph
Humidity: 72%   Direction: 360°N
Pressure: 30.17"   Gusts: 39mph
Location:  44.11°N, 87.66°W
Report Text: KMTW 311356Z AUTO 36025G34KT 10SM -RA OVC030 02/M03 A3017 RMK AO2 PK WND 35039/1314 RAE12B35UPB30E35SNB12E30 SLP241 P0000 T00171028 FZRANO
Loading
Personal Weather Stations






























Interactive Weather Map New forecast layout! Learn more

10-Day Weather Forecast

Advertisements
Track Severe Weather on mobile